Estación de San Julian

Ultimos registro cada 15 minutos 91
Estación Fecha / Hora Temperatura Humedad Lluvia Velocidad Dirección Radiación Presion
91 San Julian 02-05-2026 22:30 12,1 75,2 0 0 230 0,6 984,7
90 San Julian 02-05-2026 22:15 12,2 75 0 0 234 0,6 984,8
89 San Julian 02-05-2026 22:00 12,4 71,7 0 0 225 0,6 984,3
88 San Julian 02-05-2026 21:45 12,2 71,9 0 0 223 0,6 984,4
87 San Julian 02-05-2026 21:30 11,7 72,7 0 0 223 0,6 984,2
86 San Julian 02-05-2026 21:15 13 69,2 0 0 223 0,6 983,7
85 San Julian 02-05-2026 21:00 12,8 69,7 0 0 225 0,6 983,6
84 San Julian 02-05-2026 20:45 14,2 67,8 0 0 225 0,6 983,7
83 San Julian 02-05-2026 20:30 12,6 71,4 0 0 225 0,6 983,5
82 San Julian 02-05-2026 20:15 12,3 69,7 0 0 225 0,6 983,5
81 San Julian 02-05-2026 20:00 13,3 67,9 0 0 225 0,6 983,8
80 San Julian 02-05-2026 19:45 14,2 64,8 0 0 225 0,6 983,9
79 San Julian 02-05-2026 19:30 15,2 62,6 0 0 230 0,6 984
78 San Julian 02-05-2026 19:15 15,6 61,5 0 0 241 0,6 983,9
77 San Julian 02-05-2026 19:00 16,3 59,3 0 0 243 0,6 983,9
76 San Julian 02-05-2026 18:45 17 56,5 0 0 243 0,6 983,7
75 San Julian 02-05-2026 18:30 17,7 53,8 0 0 244 0,6 983,6
74 San Julian 02-05-2026 18:15 18,3 52,3 0 0 243 0,6 983,3
73 San Julian 02-05-2026 18:00 19,2 49,6 0 0 244 6,9 983,3
72 San Julian 02-05-2026 17:45 20,6 44,8 0 0 240 10,6 982,9
71 San Julian 02-05-2026 17:30 22,8 39,5 0 0 241 89,4 982,6
70 San Julian 02-05-2026 17:15 23,7 37,1 0 0 241 118,1 982,6
69 San Julian 02-05-2026 17:00 24,8 35,1 0 0 243 153,1 982,5
68 San Julian 02-05-2026 16:45 25,3 33,6 0 0 240 204,4 982,4
67 San Julian 02-05-2026 16:30 26,2 32,9 0 0 237 241,9 982,4
66 San Julian 02-05-2026 16:15 25,8 33,6 0 0 239 279,4 982,2
65 San Julian 02-05-2026 16:00 26,1 34 0 0 241 314,4 982,3
64 San Julian 02-05-2026 15:45 26,2 34,1 0 0 241 349,4 982,3
63 San Julian 02-05-2026 15:30 26,8 33,1 0 0 241 381,9 982,3
62 San Julian 02-05-2026 15:15 27,1 33 0 0 243 415,6 982
61 San Julian 02-05-2026 15:00 27,6 31,3 0 0 240 444,4 982
60 San Julian 02-05-2026 14:45 28,8 28,9 0 0 241 471,9 981,9
59 San Julian 02-05-2026 14:30 29,6 29,2 0 0 239 494,4 981,9
58 San Julian 02-05-2026 14:15 30,1 27,6 0 0 232 516,9 981,9
57 San Julian 02-05-2026 14:00 32,6 24,5 0 0 234 535,6 981,7
56 San Julian 02-05-2026 13:45 32,4 23,4 0 0 237 551,9 981,8
55 San Julian 02-05-2026 13:30 32,3 21,5 0 0 230 568,1 981,9
54 San Julian 02-05-2026 13:15 31 21,8 0 0 281 574,4 982
53 San Julian 02-05-2026 13:00 30,6 24,2 0 0 1 579,4 982,1
52 San Julian 02-05-2026 12:45 29,8 27,7 0 0 11 581,9 982,2
51 San Julian 02-05-2026 12:30 28,9 32,7 0 0 13 575,6 982,6
50 San Julian 02-05-2026 12:15 28,2 33,2 0 0 15 569,4 982,7
49 San Julian 02-05-2026 12:00 27,1 32,7 0 0 15 559,4 982,9
48 San Julian 02-05-2026 11:45 26,3 33,4 0 0 17 545,6 983,2
47 San Julian 02-05-2026 11:30 25,2 34,8 0 0 17 528,1 983,3
46 San Julian 02-05-2026 11:15 23,9 37,3 0 0 17 506,9 983,3
45 San Julian 02-05-2026 11:00 22,7 39,7 0 0 17 484,4 983,5
44 San Julian 02-05-2026 10:45 22,2 42,2 0 0 17 459,4 983,7
43 San Julian 02-05-2026 10:30 20,5 48,9 0 0 17 433,1 983,7
42 San Julian 02-05-2026 10:15 19,2 52,1 0 0 21 401,9 983,7
41 San Julian 02-05-2026 10:00 22,5 39,8 0 0 29 371,9 983,6
40 San Julian 02-05-2026 09:45 20,8 41,3 0 0 28 339,4 983,7
39 San Julian 02-05-2026 09:30 19,8 45,5 0 0 27 301,9 983,7
38 San Julian 02-05-2026 09:15 19 46,2 0 0 35 265,6 983,6
37 San Julian 02-05-2026 09:00 17,9 47,1 0 0 41 230,6 983,6
36 San Julian 02-05-2026 08:45 17,1 50 0 0 42 21,9 983,5
35 San Julian 02-05-2026 08:30 16,9 51,3 0 0 46 114,4 983,5
34 San Julian 02-05-2026 08:15 16 56,2 0 0 59 124,4 983,6
33 San Julian 02-05-2026 08:00 14,3 60,6 0 0 70 89,4 983,5
32 San Julian 02-05-2026 07:45 12,9 65,3 0 0 74 39,4 983,5
31 San Julian 02-05-2026 07:30 13,5 62,9 0 0 58 5,6 983,4
30 San Julian 02-05-2026 07:15 14 62,7 0 0 53 1,9 983,4
29 San Julian 02-05-2026 07:00 12,9 67,6 0 0 53 0,6 983,2
28 San Julian 02-05-2026 06:45 12,4 69,6 0 0 60 0,6 983,2
27 San Julian 02-05-2026 06:30 10 75,3 0 0 77 0,6 983,2
26 San Julian 02-05-2026 06:15 10,4 73,1 0 0 77 0,6 983,2
25 San Julian 02-05-2026 06:00 11,2 69,3 0 0 77 0,6 982,9
24 San Julian 02-05-2026 05:45 14,5 59,4 0 0 76 0,6 983,1
23 San Julian 02-05-2026 05:30 12,6 67,1 0 0 66 0,6 983,2
22 San Julian 02-05-2026 05:15 13,7 62,7 0 0 73 0,6 983,2
21 San Julian 02-05-2026 05:00 14,2 62,7 0 0 59 0,6 983,3
20 San Julian 02-05-2026 04:45 13,4 67,2 0 0 41 0,6 983,3
19 San Julian 02-05-2026 04:30 14,3 63,2 0 0 42 0,6 983,3
18 San Julian 02-05-2026 04:15 13,1 69 0 0 65 0,6 983,3
17 San Julian 02-05-2026 04:00 13,8 68,4 0 0 56 0,6 983,3
16 San Julian 02-05-2026 03:45 14,3 66,5 0 0 46 0,6 983,4
15 San Julian 02-05-2026 03:30 14,8 64,6 0 0 70 0,6 983,5
14 San Julian 02-05-2026 03:15 12,9 73,1 0 0 83 0,6 983,4
13 San Julian 02-05-2026 03:00 10,6 81,1 0 0 86 0,6 983,8
12 San Julian 02-05-2026 02:45 11,9 80,3 0 0 86 0,6 984
11 San Julian 02-05-2026 02:30 11,4 79,4 0 0 79 0,6 984
10 San Julian 02-05-2026 02:15 11,6 82,1 0 0 84 0,6 984,3
9 San Julian 02-05-2026 02:00 10,3 85,5 0 0 84 0,6 984,3
8 San Julian 02-05-2026 01:45 10,3 85 0 0 84 0,6 984,6
7 San Julian 02-05-2026 01:30 11,4 84,4 0 0 84 0,6 984,6
6 San Julian 02-05-2026 01:15 10,7 85,5 0 0 83 0,6 984,8
5 San Julian 02-05-2026 01:00 10,2 86,4 0 0 79 0,6 984,8
4 San Julian 02-05-2026 00:45 10,5 85,6 0 0 79 0,6 985
3 San Julian 02-05-2026 00:30 10,4 85,6 0 0 79 0,6 985
2 San Julian 02-05-2026 00:15 10,1 84,7 0 0 76 0,6 985,1
1 San Julian 02-05-2026 00:00 10,2 82,2 0 0 76 0,6 985,3